sensor_id;sensor_type;location;lat;lon;timestamp;temperature;humidity
65707;SHT31;52423;43.512;5.220;2023-04-23T00:02:09;15.28;57.18
65707;SHT31;52423;43.512;5.220;2023-04-23T00:04:38;15.22;57.44
65707;SHT31;52423;43.512;5.220;2023-04-23T00:07:04;15.17;57.36
65707;SHT31;52423;43.512;5.220;2023-04-23T00:09:30;15.15;57.75
65707;SHT31;52423;43.512;5.220;2023-04-23T00:11:58;15.21;58.19
65707;SHT31;52423;43.512;5.220;2023-04-23T00:14:24;15.10;58.07
65707;SHT31;52423;43.512;5.220;2023-04-23T00:16:51;15.11;57.79
65707;SHT31;52423;43.512;5.220;2023-04-23T00:19:16;15.07;58.10
65707;SHT31;52423;43.512;5.220;2023-04-23T00:21:42;15.11;57.89
65707;SHT31;52423;43.512;5.220;2023-04-23T00:24:07;15.08;58.26
65707;SHT31;52423;43.512;5.220;2023-04-23T00:26:32;15.03;58.24
65707;SHT31;52423;43.512;5.220;2023-04-23T00:28:58;14.98;58.32
65707;SHT31;52423;43.512;5.220;2023-04-23T00:31:23;15.00;58.35
65707;SHT31;52423;43.512;5.220;2023-04-23T00:33:51;15.00;58.25
65707;SHT31;52423;43.512;5.220;2023-04-23T00:36:16;15.04;58.25
65707;SHT31;52423;43.512;5.220;2023-04-23T00:38:42;15.00;58.41
65707;SHT31;52423;43.512;5.220;2023-04-23T00:41:07;14.95;58.36
65707;SHT31;52423;43.512;5.220;2023-04-23T00:43:33;15.03;58.46
65707;SHT31;52423;43.512;5.220;2023-04-23T00:45:58;14.95;58.55
65707;SHT31;52423;43.512;5.220;2023-04-23T00:48:24;14.98;58.44
65707;SHT31;52423;43.512;5.220;2023-04-23T00:50:57;14.93;58.56
65707;SHT31;52423;43.512;5.220;2023-04-23T00:53:24;14.83;58.68
65707;SHT31;52423;43.512;5.220;2023-04-23T00:55:49;14.81;58.70
65707;SHT31;52423;43.512;5.220;2023-04-23T00:58:15;14.81;58.65
65707;SHT31;52423;43.512;5.220;2023-04-23T01:00:44;14.74;58.81
65707;SHT31;52423;43.512;5.220;2023-04-23T01:03:10;14.73;58.99
65707;SHT31;52423;43.512;5.220;2023-04-23T01:05:39;14.76;58.92
65707;SHT31;52423;43.512;5.220;2023-04-23T01:08:05;14.73;59.41
65707;SHT31;52423;43.512;5.220;2023-04-23T01:10:30;14.88;59.66
65707;SHT31;52423;43.512;5.220;2023-04-23T01:12:57;14.98;59.45
65707;SHT31;52423;43.512;5.220;2023-04-23T01:15:22;14.98;58.89
65707;SHT31;52423;43.512;5.220;2023-04-23T01:17:48;14.95;58.51
65707;SHT31;52423;43.512;5.220;2023-04-23T01:20:14;14.98;58.40
65707;SHT31;52423;43.512;5.220;2023-04-23T01:22:39;15.05;57.88
65707;SHT31;52423;43.512;5.220;2023-04-23T01:25:05;15.04;58.06
65707;SHT31;52423;43.512;5.220;2023-04-23T01:27:32;14.76;60.08
65707;SHT31;52423;43.512;5.220;2023-04-23T01:30:00;14.66;60.06
65707;SHT31;52423;43.512;5.220;2023-04-23T01:32:27;14.72;60.16
65707;SHT31;52423;43.512;5.220;2023-04-23T01:34:54;14.69;60.39
65707;SHT31;52423;43.512;5.220;2023-04-23T01:37:21;14.53;60.59
65707;SHT31;52423;43.512;5.220;2023-04-23T01:39:47;14.55;60.15
65707;SHT31;52423;43.512;5.220;2023-04-23T01:42:13;14.57;60.11
65707;SHT31;52423;43.512;5.220;2023-04-23T01:44:38;14.57;59.44
65707;SHT31;52423;43.512;5.220;2023-04-23T01:47:04;14.55;59.58
65707;SHT31;52423;43.512;5.220;2023-04-23T01:49:29;14.57;59.40
65707;SHT31;52423;43.512;5.220;2023-04-23T01:51:55;14.64;60.52
65707;SHT31;52423;43.512;5.220;2023-04-23T01:54:20;14.49;60.42
65707;SHT31;52423;43.512;5.220;2023-04-23T01:56:45;14.52;60.07
65707;SHT31;52423;43.512;5.220;2023-04-23T01:59:11;14.49;60.23
65707;SHT31;52423;43.512;5.220;2023-04-23T02:01:40;14.33;61.00
65707;SHT31;52423;43.512;5.220;2023-04-23T02:04:07;14.29;61.45
65707;SHT31;52423;43.512;5.220;2023-04-23T02:06:32;14.23;61.46
65707;SHT31;52423;43.512;5.220;2023-04-23T02:08:58;14.23;61.36
65707;SHT31;52423;43.512;5.220;2023-04-23T02:11:23;14.18;61.77
65707;SHT31;52423;43.512;5.220;2023-04-23T02:13:48;14.09;61.79
65707;SHT31;52423;43.512;5.220;2023-04-23T02:16:14;14.12;61.33
65707;SHT31;52423;43.512;5.220;2023-04-23T02:18:40;14.11;61.00
65707;SHT31;52423;43.512;5.220;2023-04-23T02:21:06;14.12;61.09
65707;SHT31;52423;43.512;5.220;2023-04-23T02:23:32;14.21;61.00
65707;SHT31;52423;43.512;5.220;2023-04-23T02:25:57;14.13;61.13
65707;SHT31;52423;43.512;5.220;2023-04-23T02:28:22;14.12;61.17
65707;SHT31;52423;43.512;5.220;2023-04-23T02:30:48;14.08;61.35
65707;SHT31;52423;43.512;5.220;2023-04-23T02:33:13;14.06;61.25
65707;SHT31;52423;43.512;5.220;2023-04-23T02:35:38;14.09;61.17
65707;SHT31;52423;43.512;5.220;2023-04-23T02:38:05;14.06;61.35
65707;SHT31;52423;43.512;5.220;2023-04-23T02:40:30;14.09;61.32
65707;SHT31;52423;43.512;5.220;2023-04-23T02:42:55;14.04;61.34
65707;SHT31;52423;43.512;5.220;2023-04-23T02:45:21;14.08;61.61
65707;SHT31;52423;43.512;5.220;2023-04-23T02:47:46;14.08;61.22
65707;SHT31;52423;43.512;5.220;2023-04-23T02:50:11;14.16;61.09
65707;SHT31;52423;43.512;5.220;2023-04-23T02:52:37;14.16;61.06
65707;SHT31;52423;43.512;5.220;2023-04-23T02:55:03;14.21;60.99
65707;SHT31;52423;43.512;5.220;2023-04-23T02:57:28;14.19;61.00
65707;SHT31;52423;43.512;5.220;2023-04-23T02:59:54;14.22;60.84
65707;SHT31;52423;43.512;5.220;2023-04-23T03:02:19;14.21;60.95
65707;SHT31;52423;43.512;5.220;2023-04-23T03:04:44;14.16;60.93
65707;SHT31;52423;43.512;5.220;2023-04-23T03:07:10;14.12;61.05
65707;SHT31;52423;43.512;5.220;2023-04-23T03:09:37;14.11;61.14
65707;SHT31;52423;43.512;5.220;2023-04-23T03:12:03;14.13;61.09
65707;SHT31;52423;43.512;5.220;2023-04-23T03:14:28;14.12;61.31
65707;SHT31;52423;43.512;5.220;2023-04-23T03:16:53;14.05;61.47
65707;SHT31;52423;43.512;5.220;2023-04-23T03:19:19;14.06;61.44
65707;SHT31;52423;43.512;5.220;2023-04-23T03:21:44;14.05;61.56
65707;SHT31;52423;43.512;5.220;2023-04-23T03:24:12;14.02;61.60
65707;SHT31;52423;43.512;5.220;2023-04-23T03:26:37;14.00;61.68
65707;SHT31;52423;43.512;5.220;2023-04-23T03:29:03;13.92;61.80
65707;SHT31;52423;43.512;5.220;2023-04-23T03:31:30;13.84;61.95
65707;SHT31;52423;43.512;5.220;2023-04-23T03:33:55;13.92;61.89
65707;SHT31;52423;43.512;5.220;2023-04-23T03:36:20;13.84;61.96
65707;SHT31;52423;43.512;5.220;2023-04-23T03:38:46;13.77;61.96
65707;SHT31;52423;43.512;5.220;2023-04-23T03:41:11;13.64;62.39
65707;SHT31;52423;43.512;5.220;2023-04-23T03:43:36;13.67;62.34
65707;SHT31;52423;43.512;5.220;2023-04-23T03:46:02;13.74;62.11
65707;SHT31;52423;43.512;5.220;2023-04-23T03:48:27;13.77;61.95
65707;SHT31;52423;43.512;5.220;2023-04-23T03:50:53;13.77;61.72
65707;SHT31;52423;43.512;5.220;2023-04-23T03:53:18;13.74;61.74
65707;SHT31;52423;43.512;5.220;2023-04-23T03:55:44;13.74;61.63
65707;SHT31;52423;43.512;5.220;2023-04-23T03:58:09;13.70;61.90
65707;SHT31;52423;43.512;5.220;2023-04-23T04:00:35;13.58;62.29
65707;SHT31;52423;43.512;5.220;2023-04-23T04:03:00;13.57;62.47
65707;SHT31;52423;43.512;5.220;2023-04-23T04:05:27;13.57;62.71
65707;SHT31;52423;43.512;5.220;2023-04-23T04:07:52;13.61;62.46
65707;SHT31;52423;43.512;5.220;2023-04-23T04:10:18;13.61;62.50
65707;SHT31;52423;43.512;5.220;2023-04-23T04:12:44;13.58;62.52
65707;SHT31;52423;43.512;5.220;2023-04-23T04:15:12;13.55;62.84
65707;SHT31;52423;43.512;5.220;2023-04-23T04:17:37;13.36;63.86
65707;SHT31;52423;43.512;5.220;2023-04-23T04:20:03;13.24;64.15
65707;SHT31;52423;43.512;5.220;2023-04-23T04:22:28;13.03;64.75
65707;SHT31;52423;43.512;5.220;2023-04-23T04:24:54;12.76;65.58
65707;SHT31;52423;43.512;5.220;2023-04-23T04:27:21;12.86;64.93
65707;SHT31;52423;43.512;5.220;2023-04-23T04:29:46;12.96;64.47
65707;SHT31;52423;43.512;5.220;2023-04-23T04:32:12;13.07;64.04
65707;SHT31;52423;43.512;5.220;2023-04-23T04:34:38;13.13;64.21
65707;SHT31;52423;43.512;5.220;2023-04-23T04:37:04;13.13;64.24
65707;SHT31;52423;43.512;5.220;2023-04-23T04:39:29;12.78;65.34
65707;SHT31;52423;43.512;5.220;2023-04-23T04:41:55;12.72;65.67
65707;SHT31;52423;43.512;5.220;2023-04-23T04:44:21;12.66;65.93
65707;SHT31;52423;43.512;5.220;2023-04-23T04:46:47;12.66;66.03
65707;SHT31;52423;43.512;5.220;2023-04-23T04:49:12;12.61;66.33
65707;SHT31;52423;43.512;5.220;2023-04-23T04:51:39;12.48;66.42
65707;SHT31;52423;43.512;5.220;2023-04-23T04:54:05;12.48;66.53
65707;SHT31;52423;43.512;5.220;2023-04-23T04:56:32;12.49;66.51
65707;SHT31;52423;43.512;5.220;2023-04-23T04:58:57;12.46;66.59
65707;SHT31;52423;43.512;5.220;2023-04-23T05:01:23;12.44;66.62
65707;SHT31;52423;43.512;5.220;2023-04-23T05:03:50;12.46;66.55
65707;SHT31;52423;43.512;5.220;2023-04-23T05:06:16;12.48;66.22
65707;SHT31;52423;43.512;5.220;2023-04-23T05:08:42;12.51;66.07
65707;SHT31;52423;43.512;5.220;2023-04-23T05:11:15;12.52;66.22
65707;SHT31;52423;43.512;5.220;2023-04-23T05:13:41;12.51;66.64
65707;SHT31;52423;43.512;5.220;2023-04-23T05:16:06;12.45;66.56
65707;SHT31;52423;43.512;5.220;2023-04-23T05:18:32;12.55;66.17
65707;SHT31;52423;43.512;5.220;2023-04-23T05:20:57;12.58;66.79
65707;SHT31;52423;43.512;5.220;2023-04-23T05:23:23;12.55;66.89
65707;SHT31;52423;43.512;5.220;2023-04-23T05:25:48;12.41;67.13
65707;SHT31;52423;43.512;5.220;2023-04-23T05:28:16;12.38;67.54
65707;SHT31;52423;43.512;5.220;2023-04-23T05:30:41;12.37;67.58
65707;SHT31;52423;43.512;5.220;2023-04-23T05:33:07;12.40;67.76
65707;SHT31;52423;43.512;5.220;2023-04-23T05:35:32;12.41;67.93
65707;SHT31;52423;43.512;5.220;2023-04-23T05:37:58;12.48;67.24
65707;SHT31;52423;43.512;5.220;2023-04-23T05:40:23;12.66;66.97
65707;SHT31;52423;43.512;5.220;2023-04-23T05:42:49;12.72;67.14
65707;SHT31;52423;43.512;5.220;2023-04-23T05:45:14;12.75;66.94
65707;SHT31;52423;43.512;5.220;2023-04-23T05:47:39;12.75;67.27
65707;SHT31;52423;43.512;5.220;2023-04-23T05:50:06;12.89;66.90
65707;SHT31;52423;43.512;5.220;2023-04-23T05:52:31;13.00;65.97
65707;SHT31;52423;43.512;5.220;2023-04-23T05:54:59;13.09;65.82
65707;SHT31;52423;43.512;5.220;2023-04-23T05:57:25;13.17;65.66
65707;SHT31;52423;43.512;5.220;2023-04-23T05:59:50;13.19;65.69
65707;SHT31;52423;43.512;5.220;2023-04-23T06:02:16;13.06;66.48
65707;SHT31;52423;43.512;5.220;2023-04-23T06:04:41;13.23;65.46
65707;SHT31;52423;43.512;5.220;2023-04-23T06:07:06;13.41;64.77
65707;SHT31;52423;43.512;5.220;2023-04-23T06:09:32;13.55;64.74
65707;SHT31;52423;43.512;5.220;2023-04-23T06:11:57;13.63;64.41
65707;SHT31;52423;43.512;5.220;2023-04-23T06:14:23;13.84;63.95
65707;SHT31;52423;43.512;5.220;2023-04-23T06:16:48;13.94;63.87
65707;SHT31;52423;43.512;5.220;2023-04-23T06:19:13;14.02;63.99
65707;SHT31;52423;43.512;5.220;2023-04-23T06:21:39;14.08;63.98
65707;SHT31;52423;43.512;5.220;2023-04-23T06:24:05;14.15;63.60
65707;SHT31;52423;43.512;5.220;2023-04-23T06:26:32;14.28;62.94
65707;SHT31;52423;43.512;5.220;2023-04-23T06:28:57;14.44;62.51
65707;SHT31;52423;43.512;5.220;2023-04-23T06:31:23;14.56;62.30
65707;SHT31;52423;43.512;5.220;2023-04-23T06:33:48;14.64;62.17
65707;SHT31;52423;43.512;5.220;2023-04-23T06:36:13;14.70;61.87
65707;SHT31;52423;43.512;5.220;2023-04-23T06:38:39;14.84;61.80
65707;SHT31;52423;43.512;5.220;2023-04-23T06:41:05;15.20;59.36
65707;SHT31;52423;43.512;5.220;2023-04-23T06:43:30;15.42;58.65
65707;SHT31;52423;43.512;5.220;2023-04-23T06:45:56;15.59;57.60
65707;SHT31;52423;43.512;5.220;2023-04-23T06:48:22;15.79;56.83
65707;SHT31;52423;43.512;5.220;2023-04-23T06:50:47;15.79;56.99
65707;SHT31;52423;43.512;5.220;2023-04-23T06:53:13;16.00;57.54
65707;SHT31;52423;43.512;5.220;2023-04-23T06:55:39;16.20;56.26
65707;SHT31;52423;43.512;5.220;2023-04-23T06:58:04;16.34;55.92
65707;SHT31;52423;43.512;5.220;2023-04-23T07:00:31;16.47;56.00
65707;SHT31;52423;43.512;5.220;2023-04-23T07:02:57;16.58;55.75
65707;SHT31;52423;43.512;5.220;2023-04-23T07:05:23;16.60;54.92
65707;SHT31;52423;43.512;5.220;2023-04-23T07:07:48;16.67;54.68
65707;SHT31;52423;43.512;5.220;2023-04-23T07:10:14;16.71;54.59
65707;SHT31;52423;43.512;5.220;2023-04-23T07:12:39;16.84;54.11
65707;SHT31;52423;43.512;5.220;2023-04-23T07:15:06;16.91;53.22
65707;SHT31;52423;43.512;5.220;2023-04-23T07:17:32;17.06;53.93
65707;SHT31;52423;43.512;5.220;2023-04-23T07:19:57;17.18;54.07
65707;SHT31;52423;43.512;5.220;2023-04-23T07:22:24;17.22;52.40
65707;SHT31;52423;43.512;5.220;2023-04-23T07:24:51;17.22;53.45
65707;SHT31;52423;43.512;5.220;2023-04-23T07:27:17;17.25;54.06
65707;SHT31;52423;43.512;5.220;2023-04-23T07:29:42;17.20;54.71
65707;SHT31;52423;43.512;5.220;2023-04-23T07:32:07;17.12;55.06
65707;SHT31;52423;43.512;5.220;2023-04-23T07:34:33;17.39;55.78
65707;SHT31;52423;43.512;5.220;2023-04-23T07:37:00;17.42;54.72
65707;SHT31;52423;43.512;5.220;2023-04-23T07:39:25;17.47;54.64
65707;SHT31;52423;43.512;5.220;2023-04-23T07:41:51;17.67;56.10
65707;SHT31;52423;43.512;5.220;2023-04-23T07:44:16;17.87;56.20
65707;SHT31;52423;43.512;5.220;2023-04-23T07:46:42;18.00;55.58
65707;SHT31;52423;43.512;5.220;2023-04-23T07:49:07;17.83;57.46
65707;SHT31;52423;43.512;5.220;2023-04-23T07:51:33;17.84;55.73
65707;SHT31;52423;43.512;5.220;2023-04-23T07:53:58;17.53;58.21
65707;SHT31;52423;43.512;5.220;2023-04-23T07:56:23;17.78;57.25
65707;SHT31;52423;43.512;5.220;2023-04-23T07:58:50;17.94;56.26
65707;SHT31;52423;43.512;5.220;2023-04-23T08:01:18;18.09;57.40
65707;SHT31;52423;43.512;5.220;2023-04-23T08:03:43;18.15;56.56
65707;SHT31;52423;43.512;5.220;2023-04-23T08:06:11;18.36;56.04
65707;SHT31;52423;43.512;5.220;2023-04-23T08:08:37;18.19;57.60
65707;SHT31;52423;43.512;5.220;2023-04-23T08:11:07;18.29;57.88
65707;SHT31;52423;43.512;5.220;2023-04-23T08:13:32;18.45;56.78
65707;SHT31;52423;43.512;5.220;2023-04-23T08:15:58;18.25;56.91
65707;SHT31;52423;43.512;5.220;2023-04-23T08:18:23;18.42;56.91
65707;SHT31;52423;43.512;5.220;2023-04-23T08:20:49;18.45;57.00
65707;SHT31;52423;43.512;5.220;2023-04-23T08:23:15;18.66;56.50
65707;SHT31;52423;43.512;5.220;2023-04-23T08:25:40;18.69;55.78
65707;SHT31;52423;43.512;5.220;2023-04-23T08:28:06;18.63;56.71
65707;SHT31;52423;43.512;5.220;2023-04-23T08:30:31;18.79;56.02
65707;SHT31;52423;43.512;5.220;2023-04-23T08:32:57;18.93;56.66
65707;SHT31;52423;43.512;5.220;2023-04-23T08:35:22;18.89;56.30
65707;SHT31;52423;43.512;5.220;2023-04-23T08:37:48;19.06;55.59
65707;SHT31;52423;43.512;5.220;2023-04-23T08:40:13;19.08;55.98
65707;SHT31;52423;43.512;5.220;2023-04-23T08:42:46;19.32;55.44
65707;SHT31;52423;43.512;5.220;2023-04-23T08:45:13;19.07;54.28
65707;SHT31;52423;43.512;5.220;2023-04-23T08:47:40;19.04;54.18
65707;SHT31;52423;43.512;5.220;2023-04-23T08:50:16;19.02;53.92
65707;SHT31;52423;43.512;5.220;2023-04-23T08:52:49;18.92;52.35
65707;SHT31;52423;43.512;5.220;2023-04-23T08:55:17;19.15;52.50
65707;SHT31;52423;43.512;5.220;2023-04-23T08:57:43;19.27;52.65
65707;SHT31;52423;43.512;5.220;2023-04-23T09:00:10;19.43;53.39
65707;SHT31;52423;43.512;5.220;2023-04-23T09:02:39;19.51;52.75
65707;SHT31;52423;43.512;5.220;2023-04-23T09:05:05;19.68;53.10
65707;SHT31;52423;43.512;5.220;2023-04-23T09:07:32;19.87;52.49
65707;SHT31;52423;43.512;5.220;2023-04-23T09:09:57;19.89;52.03
65707;SHT31;52423;43.512;5.220;2023-04-23T09:12:23;20.02;51.11
65707;SHT31;52423;43.512;5.220;2023-04-23T09:14:49;19.85;52.44
65707;SHT31;52423;43.512;5.220;2023-04-23T09:17:16;19.85;52.92
65707;SHT31;52423;43.512;5.220;2023-04-23T09:19:42;19.87;53.22
65707;SHT31;52423;43.512;5.220;2023-04-23T09:22:09;19.95;49.79
65707;SHT31;52423;43.512;5.220;2023-04-23T09:24:34;20.02;52.20
65707;SHT31;52423;43.512;5.220;2023-04-23T09:26:59;20.20;52.56
65707;SHT31;52423;43.512;5.220;2023-04-23T09:29:25;20.12;52.94
65707;SHT31;52423;43.512;5.220;2023-04-23T09:32:02;20.40;51.22
65707;SHT31;52423;43.512;5.220;2023-04-23T09:34:28;20.41;51.22
65707;SHT31;52423;43.512;5.220;2023-04-23T09:36:53;20.06;51.65
65707;SHT31;52423;43.512;5.220;2023-04-23T09:39:22;20.22;52.58
65707;SHT31;52423;43.512;5.220;2023-04-23T09:41:50;20.33;50.77
65707;SHT31;52423;43.512;5.220;2023-04-23T09:44:17;20.09;50.59
65707;SHT31;52423;43.512;5.220;2023-04-23T09:46:43;20.23;51.76
65707;SHT31;52423;43.512;5.220;2023-04-23T09:49:10;20.63;50.06
65707;SHT31;52423;43.512;5.220;2023-04-23T09:54:10;20.44;51.14
65707;SHT31;52423;43.512;5.220;2023-04-23T09:56:36;20.70;50.37
65707;SHT31;52423;43.512;5.220;2023-04-23T09:59:02;20.96;50.70
65707;SHT31;52423;43.512;5.220;2023-04-23T10:01:44;21.19;49.35
65707;SHT31;52423;43.512;5.220;2023-04-23T10:04:11;21.21;48.48
65707;SHT31;52423;43.512;5.220;2023-04-23T10:06:36;20.99;47.22
65707;SHT31;52423;43.512;5.220;2023-04-23T10:09:02;20.88;49.57
65707;SHT31;52423;43.512;5.220;2023-04-23T10:11:28;21.04;49.68
65707;SHT31;52423;43.512;5.220;2023-04-23T10:13:54;20.98;48.78
65707;SHT31;52423;43.512;5.220;2023-04-23T10:16:20;20.55;50.59
65707;SHT31;52423;43.512;5.220;2023-04-23T10:18:49;20.60;50.12
65707;SHT31;52423;43.512;5.220;2023-04-23T10:21:16;20.60;50.03
65707;SHT31;52423;43.512;5.220;2023-04-23T10:23:43;21.16;50.01
65707;SHT31;52423;43.512;5.220;2023-04-23T10:26:10;21.43;50.10
65707;SHT31;52423;43.512;5.220;2023-04-23T10:28:39;21.45;50.25
65707;SHT31;52423;43.512;5.220;2023-04-23T10:31:05;21.56;49.87
65707;SHT31;52423;43.512;5.220;2023-04-23T10:33:30;21.57;50.92
65707;SHT31;52423;43.512;5.220;2023-04-23T10:35:56;21.33;49.25
65707;SHT31;52423;43.512;5.220;2023-04-23T10:38:22;21.49;49.46
65707;SHT31;52423;43.512;5.220;2023-04-23T10:40:49;21.60;48.34
65707;SHT31;52423;43.512;5.220;2023-04-23T10:43:17;21.16;50.93
65707;SHT31;52423;43.512;5.220;2023-04-23T10:45:43;21.19;49.51
65707;SHT31;52423;43.512;5.220;2023-04-23T10:48:08;21.02;51.76
65707;SHT31;52423;43.512;5.220;2023-04-23T10:50:34;21.12;51.58
65707;SHT31;52423;43.512;5.220;2023-04-23T10:53:01;21.21;51.73
65707;SHT31;52423;43.512;5.220;2023-04-23T10:55:29;20.95;52.87
65707;SHT31;52423;43.512;5.220;2023-04-23T11:00:24;21.08;55.23
65707;SHT31;52423;43.512;5.220;2023-04-23T11:02:49;21.19;55.10
65707;SHT31;52423;43.512;5.220;2023-04-23T11:05:15;21.36;54.57
65707;SHT31;52423;43.512;5.220;2023-04-23T11:07:41;21.15;54.95
65707;SHT31;52423;43.512;5.220;2023-04-23T11:10:12;21.18;55.52
65707;SHT31;52423;43.512;5.220;2023-04-23T11:12:38;21.19;55.80
65707;SHT31;52423;43.512;5.220;2023-04-23T11:15:14;21.15;56.19
65707;SHT31;52423;43.512;5.220;2023-04-23T11:20:18;20.73;57.60
65707;SHT31;52423;43.512;5.220;2023-04-23T11:25:21;20.78;57.20
65707;SHT31;52423;43.512;5.220;2023-04-23T11:27:49;20.85;57.02
65707;SHT31;52423;43.512;5.220;2023-04-23T11:30:25;21.02;57.13
65707;SHT31;52423;43.512;5.220;2023-04-23T11:32:52;21.12;56.03
65707;SHT31;52423;43.512;5.220;2023-04-23T11:35:20;21.29;54.59
65707;SHT31;52423;43.512;5.220;2023-04-23T11:37:46;21.33;55.04
65707;SHT31;52423;43.512;5.220;2023-04-23T11:40:16;21.49;54.95
65707;SHT31;52423;43.512;5.220;2023-04-23T11:42:49;21.26;54.75
65707;SHT31;52423;43.512;5.220;2023-04-23T11:45:24;21.26;55.02
65707;SHT31;52423;43.512;5.220;2023-04-23T11:47:52;20.67;56.22
65707;SHT31;52423;43.512;5.220;2023-04-23T11:50:23;20.95;55.59
65707;SHT31;52423;43.512;5.220;2023-04-23T11:52:49;20.98;55.47
65707;SHT31;52423;43.512;5.220;2023-04-23T11:55:15;21.12;54.67
65707;SHT31;52423;43.512;5.220;2023-04-23T11:57:48;21.06;54.38
65707;SHT31;52423;43.512;5.220;2023-04-23T12:00:19;20.99;54.89
65707;SHT31;52423;43.512;5.220;2023-04-23T12:02:58;21.04;54.43
65707;SHT31;52423;43.512;5.220;2023-04-23T12:07:53;20.98;54.94
65707;SHT31;52423;43.512;5.220;2023-04-23T12:10:19;20.87;55.03
65707;SHT31;52423;43.512;5.220;2023-04-23T12:12:51;20.84;55.12
65707;SHT31;52423;43.512;5.220;2023-04-23T12:15:17;20.71;54.98
65707;SHT31;52423;43.512;5.220;2023-04-23T12:17:47;20.78;56.59
65707;SHT31;52423;43.512;5.220;2023-04-23T12:20:20;20.84;55.32
65707;SHT31;52423;43.512;5.220;2023-04-23T12:22:46;20.83;54.94
65707;SHT31;52423;43.512;5.220;2023-04-23T12:25:12;20.84;54.62
65707;SHT31;52423;43.512;5.220;2023-04-23T12:27:41;20.78;54.11
65707;SHT31;52423;43.512;5.220;2023-04-23T12:30:08;20.53;55.79
65707;SHT31;52423;43.512;5.220;2023-04-23T12:32:36;20.61;56.30
65707;SHT31;52423;43.512;5.220;2023-04-23T12:35:01;20.47;56.54
65707;SHT31;52423;43.512;5.220;2023-04-23T12:37:34;20.55;57.04
65707;SHT31;52423;43.512;5.220;2023-04-23T12:40:00;20.54;55.99
65707;SHT31;52423;43.512;5.220;2023-04-23T12:42:25;20.70;56.40
65707;SHT31;52423;43.512;5.220;2023-04-23T12:44:51;20.60;55.29
65707;SHT31;52423;43.512;5.220;2023-04-23T12:47:16;20.39;55.25
65707;SHT31;52423;43.512;5.220;2023-04-23T12:49:45;20.81;54.49
65707;SHT31;52423;43.512;5.220;2023-04-23T12:52:11;20.63;54.55
65707;SHT31;52423;43.512;5.220;2023-04-23T12:54:38;20.74;55.07
65707;SHT31;52423;43.512;5.220;2023-04-23T12:57:06;20.65;54.56
65707;SHT31;52423;43.512;5.220;2023-04-23T12:59:32;21.04;55.14
65707;SHT31;52423;43.512;5.220;2023-04-23T13:01:59;21.14;54.08
65707;SHT31;52423;43.512;5.220;2023-04-23T13:04:26;21.18;54.18
65707;SHT31;52423;43.512;5.220;2023-04-23T13:06:52;20.84;54.21
65707;SHT31;52423;43.512;5.220;2023-04-23T13:09:18;20.78;54.83
65707;SHT31;52423;43.512;5.220;2023-04-23T13:11:46;20.84;55.85
65707;SHT31;52423;43.512;5.220;2023-04-23T13:14:14;21.01;57.36
65707;SHT31;52423;43.512;5.220;2023-04-23T13:16:40;20.70;57.42
65707;SHT31;52423;43.512;5.220;2023-04-23T13:19:05;20.70;58.84
65707;SHT31;52423;43.512;5.220;2023-04-23T13:21:31;20.63;58.15
65707;SHT31;52423;43.512;5.220;2023-04-23T13:23:56;20.41;59.69
65707;SHT31;52423;43.512;5.220;2023-04-23T13:26:22;20.23;60.02
65707;SHT31;52423;43.512;5.220;2023-04-23T13:28:47;19.92;60.44
65707;SHT31;52423;43.512;5.220;2023-04-23T13:31:12;19.97;61.16
65707;SHT31;52423;43.512;5.220;2023-04-23T13:33:40;20.02;60.95
65707;SHT31;52423;43.512;5.220;2023-04-23T13:36:06;19.96;60.59
65707;SHT31;52423;43.512;5.220;2023-04-23T13:38:31;19.96;60.72
65707;SHT31;52423;43.512;5.220;2023-04-23T13:40:57;19.99;60.67
65707;SHT31;52423;43.512;5.220;2023-04-23T13:43:22;20.08;59.89
65707;SHT31;52423;43.512;5.220;2023-04-23T13:45:48;20.19;58.83
65707;SHT31;52423;43.512;5.220;2023-04-23T13:48:14;20.06;58.56
65707;SHT31;52423;43.512;5.220;2023-04-23T13:50:40;20.36;57.13
65707;SHT31;52423;43.512;5.220;2023-04-23T13:53:07;20.47;58.43
65707;SHT31;52423;43.512;5.220;2023-04-23T13:55:33;20.83;57.80
65707;SHT31;52423;43.512;5.220;2023-04-23T13:57:58;20.87;56.71
65707;SHT31;52423;43.512;5.220;2023-04-23T14:00:26;20.71;57.57
65707;SHT31;52423;43.512;5.220;2023-04-23T14:02:52;20.39;57.23
65707;SHT31;52423;43.512;5.220;2023-04-23T14:05:18;20.41;58.49
65707;SHT31;52423;43.512;5.220;2023-04-23T14:07:43;20.41;57.76
65707;SHT31;52423;43.512;5.220;2023-04-23T14:10:09;20.44;57.57
65707;SHT31;52423;43.512;5.220;2023-04-23T14:12:34;20.30;59.56
65707;SHT31;52423;43.512;5.220;2023-04-23T14:15:01;20.32;59.73
65707;SHT31;52423;43.512;5.220;2023-04-23T14:17:26;19.97;60.19
65707;SHT31;52423;43.512;5.220;2023-04-23T14:19:52;20.13;60.26
65707;SHT31;52423;43.512;5.220;2023-04-23T14:22:17;20.26;60.60
65707;SHT31;52423;43.512;5.220;2023-04-23T14:24:49;20.26;60.13
65707;SHT31;52423;43.512;5.220;2023-04-23T14:27:14;20.02;60.71
65707;SHT31;52423;43.512;5.220;2023-04-23T14:29:45;20.17;60.50
65707;SHT31;52423;43.512;5.220;2023-04-23T14:32:11;20.09;59.73
65707;SHT31;52423;43.512;5.220;2023-04-23T14:34:37;19.93;61.57
65707;SHT31;52423;43.512;5.220;2023-04-23T14:37:03;19.76;61.30
65707;SHT31;52423;43.512;5.220;2023-04-23T14:39:28;20.05;62.70
65707;SHT31;52423;43.512;5.220;2023-04-23T14:41:54;19.89;62.38
65707;SHT31;52423;43.512;5.220;2023-04-23T14:44:20;19.76;62.98
65707;SHT31;52423;43.512;5.220;2023-04-23T14:46:51;19.55;62.69
65707;SHT31;52423;43.512;5.220;2023-04-23T14:49:17;19.54;63.91
65707;SHT31;52423;43.512;5.220;2023-04-23T14:51:43;19.95;63.41
65707;SHT31;52423;43.512;5.220;2023-04-23T14:54:09;19.45;65.11
65707;SHT31;52423;43.512;5.220;2023-04-23T14:56:34;19.25;65.34
65707;SHT31;52423;43.512;5.220;2023-04-23T14:59:01;19.43;65.39
65707;SHT31;52423;43.512;5.220;2023-04-23T15:01:28;19.57;65.21
65707;SHT31;52423;43.512;5.220;2023-04-23T15:03:53;19.61;65.23
65707;SHT31;52423;43.512;5.220;2023-04-23T15:06:19;19.38;64.84
65707;SHT31;52423;43.512;5.220;2023-04-23T15:08:44;19.10;65.41
65707;SHT31;52423;43.512;5.220;2023-04-23T15:11:11;18.97;66.13
65707;SHT31;52423;43.512;5.220;2023-04-23T15:13:47;18.99;65.66
65707;SHT31;52423;43.512;5.220;2023-04-23T15:16:34;19.10;65.00
65707;SHT31;52423;43.512;5.220;2023-04-23T15:19:01;18.93;65.36
65707;SHT31;52423;43.512;5.220;2023-04-23T15:21:32;18.87;65.07
65707;SHT31;52423;43.512;5.220;2023-04-23T15:23:57;18.80;66.28
65707;SHT31;52423;43.512;5.220;2023-04-23T15:26:24;18.87;65.58
65707;SHT31;52423;43.512;5.220;2023-04-23T15:28:49;18.97;66.68
65707;SHT31;52423;43.512;5.220;2023-04-23T15:31:15;18.99;67.18
65707;SHT31;52423;43.512;5.220;2023-04-23T15:33:40;19.15;67.48
65707;SHT31;52423;43.512;5.220;2023-04-23T15:36:06;19.04;64.63
65707;SHT31;52423;43.512;5.220;2023-04-23T15:38:32;18.99;66.55